Time;durP1;ratioP1;P1;durP2;ratioP2;P2;SDS_P1;SDS_P2;PMS_P1;PMS_P2;Temp;Humidity;BMP_temperature;BMP_pressure;BME280_temperature;BME280_humidity;BME280_pressure;Samples;Min_cycle;Max_cycle;Signal;HPM_P1;HPM_P2
2022/07/30 00:00:55;;;;;;;8.27;7.15;;;;;;;;;;2091420;28;20163;-60
2022/07/30 00:01:55;;;;;;;7.65;6.95;;;;;;;;;;2075627;28;20195;-59
2022/07/30 00:02:56;;;;;;;7.80;7.10;;;;;;;;;;2074743;28;20185;-61
2022/07/30 00:03:56;;;;;;;7.07;6.47;;;;;;;;;;2092041;28;20644;-59
2022/07/30 00:04:56;;;;;;;7.72;6.93;;;;;;;;;;2091022;28;20168;-60
2022/07/30 00:05:57;;;;;;;8.05;7.22;;;;;;;;;;2085813;28;20159;-58
2022/07/30 00:06:58;;;;;;;7.88;7.07;;;;;;;;;;2082770;28;20734;-59
2022/07/30 00:07:58;;;;;;;7.25;6.65;;;;;;;;;;2092636;28;20241;-60
2022/07/30 00:08:58;;;;;;;8.20;7.40;;;;;;;;;;2082815;28;20176;-58
2022/07/30 00:09:59;;;;;;;7.20;6.60;;;;;;;;;;2084236;28;20279;-58
2022/07/30 00:10:59;;;;;;;7.45;6.75;;;;;;;;;;2091554;28;20184;-57
2022/07/30 00:11:59;;;;;;;7.82;6.90;;;;;;;;;;2092710;28;20223;-58
2022/07/30 00:13:00;;;;;;;7.10;6.50;;;;;;;;;;2092314;28;20163;-63
2022/07/30 00:14:01;;;;;;;8.75;7.13;;;;;;;;;;2092529;28;20245;-55
2022/07/30 00:15:01;;;;;;;8.20;7.45;;;;;;;;;;2083966;28;20240;-58
2022/07/30 00:16:01;;;;;;;7.90;7.10;;;;;;;;;;2085188;28;20165;-58
2022/07/30 00:17:02;;;;;;;8.63;6.97;;;;;;;;;;2084244;28;20673;-60
2022/07/30 00:18:03;;;;;;;7.85;7.15;;;;;;;;;;2084744;28;20187;-61
2022/07/30 00:19:03;;;;;;;8.20;6.88;;;;;;;;;;2092989;28;20546;-59
2022/07/30 00:20:04;;;;;;;7.70;7.10;;;;;;;;;;2092782;28;20171;-58
2022/07/30 00:21:04;;;;;;;8.63;7.15;;;;;;;;;;2092571;28;20164;-59
2022/07/30 00:22:04;;;;;;;8.25;7.35;;;;;;;;;;2083623;28;20708;-59
2022/07/30 00:23:04;;;;;;;7.35;6.82;;;;;;;;;;2085261;28;20167;-59
2022/07/30 00:24:07;;;;;;;7.47;6.85;;;;;;;;;;2091326;28;20251;-59
2022/07/30 00:25:07;;;;;;;8.90;8.20;;;;;;;;;;2074026;28;20177;-61
2022/07/30 00:26:08;;;;;;;7.70;6.90;;;;;;;;;;2066428;28;20206;-58
2022/07/30 00:27:08;;;;;;;7.35;6.70;;;;;;;;;;2074232;28;20709;-60
2022/07/30 00:28:08;;;;;;;8.52;7.63;;;;;;;;;;2082519;28;20604;-58
2022/07/30 00:29:09;;;;;;;8.18;7.38;;;;;;;;;;2090848;28;20183;-56
2022/07/30 00:30:10;;;;;;;9.48;7.72;;;;;;;;;;2091409;28;20171;-60
2022/07/30 00:31:10;;;;;;;7.88;7.03;;;;;;;;;;2079343;28;20721;-65
2022/07/30 00:32:10;;;;;;;18.50;13.75;;;;;;;;;;2082947;28;20641;-58
2022/07/30 00:33:11;;;;;;;27.50;19.48;;;;;;;;;;2074277;28;20169;-57
2022/07/30 00:34:12;;;;;;;19.73;15.45;;;;;;;;;;2081991;28;20227;-60
2022/07/30 00:35:12;;;;;;;12.40;11.20;;;;;;;;;;2091917;28;20172;-59
2022/07/30 00:36:13;;;;;;;11.75;10.57;;;;;;;;;;2083430;28;20936;-58
2022/07/30 00:37:14;;;;;;;11.77;9.23;;;;;;;;;;2082685;28;20180;-59
2022/07/30 00:38:14;;;;;;;10.27;9.18;;;;;;;;;;2083124;28;20196;-60
2022/07/30 00:39:15;;;;;;;8.65;7.85;;;;;;;;;;2074873;28;20177;-62
2022/07/30 00:40:15;;;;;;;12.93;8.30;;;;;;;;;;2066129;28;20169;-58
2022/07/30 00:41:15;;;;;;;7.85;7.25;;;;;;;;;;2074933;28;20264;-58
2022/07/30 00:42:24;;;;;;;8.90;8.10;;;;;;;;;;2083390;28;20183;-59
2022/07/30 00:43:24;;;;;;;8.65;7.85;;;;;;;;;;2075957;28;20171;-61
2022/07/30 00:44:25;;;;;;;8.52;7.80;;;;;;;;;;2074084;28;20184;-59
2022/07/30 00:45:26;;;;;;;8.32;7.40;;;;;;;;;;2075364;28;20180;-57
2022/07/30 00:46:26;;;;;;;8.77;7.93;;;;;;;;;;2081881;28;20246;-56
2022/07/30 00:47:27;;;;;;;10.32;8.85;;;;;;;;;;2091866;28;20280;-60
2022/07/30 00:48:27;;;;;;;9.05;8.20;;;;;;;;;;2092623;28;20179;-61
2022/07/30 00:49:28;;;;;;;8.82;8.13;;;;;;;;;;2083382;28;20261;-57
2022/07/30 00:50:28;;;;;;;8.27;7.47;;;;;;;;;;2083850;28;20235;-60
2022/07/30 00:51:28;;;;;;;8.02;7.30;;;;;;;;;;2092313;28;20207;-56
2022/07/30 00:52:30;;;;;;;8.38;7.43;;;;;;;;;;2082431;28;20250;-57
2022/07/30 00:53:30;;;;;;;8.40;7.57;;;;;;;;;;2082083;28;20187;-55
2022/07/30 00:54:31;;;;;;;8.38;7.68;;;;;;;;;;2081460;28;20852;-56
2022/07/30 00:55:32;;;;;;;8.25;7.55;;;;;;;;;;2081992;28;20247;-55
2022/07/30 00:56:33;;;;;;;9.18;8.38;;;;;;;;;;2082037;28;20172;-59
2022/07/30 00:57:33;;;;;;;8.77;8.18;;;;;;;;;;2085452;28;20191;-58
2022/07/30 00:58:33;;;;;;;9.38;8.48;;;;;;;;;;2091200;28;20261;-59
2022/07/30 00:59:34;;;;;;;9.35;8.55;;;;;;;;;;2089465;28;20181;-57
2022/07/30 01:00:34;;;;;;;11.88;9.25;;;;;;;;;;2091241;28;20175;-55
2022/07/30 01:01:35;;;;;;;10.52;9.45;;;;;;;;;;2082927;28;20184;-56
2022/07/30 01:02:35;;;;;;;12.32;11.02;;;;;;;;;;2083581;28;20172;-60
2022/07/30 01:03:36;;;;;;;10.85;9.98;;;;;;;;;;2082434;28;20259;-57
2022/07/30 01:04:36;;;;;;;10.07;9.13;;;;;;;;;;2081910;28;20168;-58
2022/07/30 01:05:37;;;;;;;10.02;9.15;;;;;;;;;;2090970;28;20204;-59
2022/07/30 01:06:38;;;;;;;8.90;8.07;;;;;;;;;;2083099;28;20169;-56
2022/07/30 01:07:38;;;;;;;11.73;8.70;;;;;;;;;;2075796;28;20176;-58
2022/07/30 01:08:39;;;;;;;8.80;7.97;;;;;;;;;;2083012;28;20188;-56
2022/07/30 01:09:39;;;;;;;9.10;8.25;;;;;;;;;;2075301;28;20192;-61
2022/07/30 01:10:39;;;;;;;9.32;8.52;;;;;;;;;;2082954;28;20333;-55
2022/07/30 01:11:41;;;;;;;8.60;7.75;;;;;;;;;;2090691;28;20195;-59
2022/07/30 01:12:41;;;;;;;8.13;7.38;;;;;;;;;;2081702;28;20187;-57
2022/07/30 01:13:45;;;;;;;7.97;7.28;;;;;;;;;;2081880;28;20184;-58
2022/07/30 01:14:46;;;;;;;9.18;8.27;;;;;;;;;;2089717;28;20566;-58
2022/07/30 01:15:47;;;;;;;9.15;8.27;;;;;;;;;;2090624;28;20266;-59
2022/07/30 01:16:47;;;;;;;8.27;7.57;;;;;;;;;;2090189;28;20187;-56
2022/07/30 01:17:49;;;;;;;9.30;8.38;;;;;;;;;;2082011;28;20287;-55
2022/07/30 01:20:13;;;;;;;8.95;8.23;;;;;;;;;;2079226;28;20184;-59
2022/07/30 01:21:15;;;;;;;8.13;7.53;;;;;;;;;;2081092;28;20168;-57
2022/07/30 01:22:25;;;;;;;8.48;7.78;;;;;;;;;;2090263;28;20547;-56
2022/07/30 01:23:45;;;;;;;10.77;8.25;;;;;;;;;;2081741;28;20716;-54
2022/07/30 01:24:51;;;;;;;9.07;8.27;;;;;;;;;;2083358;28;20172;-57
2022/07/30 01:25:52;;;;;;;10.00;9.00;;;;;;;;;;2090674;28;20160;-59
2022/07/30 01:26:53;;;;;;;8.63;7.82;;;;;;;;;;2080622;28;20168;-59
2022/07/30 01:27:56;;;;;;;10.88;9.05;;;;;;;;;;2082025;28;20212;-60
2022/07/30 01:28:57;;;;;;;10.63;9.63;;;;;;;;;;2081621;28;20180;-58
2022/07/30 01:29:58;;;;;;;10.23;9.40;;;;;;;;;;2073940;28;20177;-57
2022/07/30 01:30:59;;;;;;;11.25;10.20;;;;;;;;;;2081860;28;20251;-57
2022/07/30 01:31:59;;;;;;;13.98;12.50;;;;;;;;;;2082008;28;20192;-58
2022/07/30 01:33:01;;;;;;;12.57;11.40;;;;;;;;;;2081737;28;20635;-59
2022/07/30 01:34:03;;;;;;;10.23;9.18;;;;;;;;;;2080919;28;20176;-59
2022/07/30 01:35:05;;;;;;;10.27;9.25;;;;;;;;;;2073727;28;20173;-60
2022/07/30 01:36:07;;;;;;;9.88;8.95;;;;;;;;;;2081789;28;20176;-57
2022/07/30 01:37:09;;;;;;;8.77;8.18;;;;;;;;;;2073892;28;20169;-59
2022/07/30 01:38:10;;;;;;;9.23;8.43;;;;;;;;;;2073612;28;20200;-61
2022/07/30 01:39:11;;;;;;;9.88;9.02;;;;;;;;;;2079470;28;20627;-57
2022/07/30 01:40:13;;;;;;;10.02;9.25;;;;;;;;;;2073322;28;20172;-58
2022/07/30 01:41:14;;;;;;;10.38;9.38;;;;;;;;;;2074090;28;20176;-58
2022/07/30 01:42:16;;;;;;;9.27;8.60;;;;;;;;;;2081892;28;20173;-57
2022/07/30 01:43:17;;;;;;;9.77;8.98;;;;;;;;;;2081814;28;20172;-59
2022/07/30 01:44:18;;;;;;;9.60;8.80;;;;;;;;;;2089671;28;20184;-57
2022/07/30 01:45:20;;;;;;;12.13;8.75;;;;;;;;;;2081820;28;20250;-57
2022/07/30 01:46:22;;;;;;;9.68;8.68;;;;;;;;;;2072857;28;20614;-59
2022/07/30 01:47:23;;;;;;;9.35;8.65;;;;;;;;;;2070301;28;20181;-57
2022/07/30 01:48:26;;;;;;;9.15;8.35;;;;;;;;;;2072295;28;20322;-58
2022/07/30 01:49:28;;;;;;;8.95;8.20;;;;;;;;;;2073726;28;20169;-58
2022/07/30 01:50:29;;;;;;;9.82;8.95;;;;;;;;;;2073349;28;20181;-61
2022/07/30 01:51:30;;;;;;;9.80;9.00;;;;;;;;;;2073510;28;20200;-59
2022/07/30 01:52:32;;;;;;;10.63;9.73;;;;;;;;;;2070634;28;20169;-58
2022/07/30 01:53:35;;;;;;;10.40;9.50;;;;;;;;;;2081763;28;20210;-56
2022/07/30 01:54:36;;;;;;;11.23;10.25;;;;;;;;;;2089569;28;20175;-60
2022/07/30 01:55:39;;;;;;;10.52;9.63;;;;;;;;;;2082152;28;20249;-59
2022/07/30 01:56:40;;;;;;;10.52;9.63;;;;;;;;;;2073100;28;20653;-56
2022/07/30 01:57:40;;;;;;;11.05;10.05;;;;;;;;;;2073031;28;20196;-59
2022/07/30 01:58:41;;;;;;;11.00;9.90;;;;;;;;;;2081849;28;20173;-58
2022/07/30 01:59:56;;;;;;;9.90;9.13;;;;;;;;;;2081367;28;20728;-59
2022/07/30 02:00:59;;;;;;;11.48;10.52;;;;;;;;;;2068819;28;20181;-59
2022/07/30 02:02:01;;;;;;;11.00;10.10;;;;;;;;;;2081841;28;20222;-60
2022/07/30 02:03:01;;;;;;;12.48;11.35;;;;;;;;;;2082379;28;20172;-61
2022/07/30 02:04:03;;;;;;;11.20;10.25;;;;;;;;;;2081643;28;20157;-59
2022/07/30 02:05:03;;;;;;;11.52;10.63;;;;;;;;;;2084357;28;20179;-58
2022/07/30 02:06:08;;;;;;;12.25;11.15;;;;;;;;;;2084836;28;20697;-60
2022/07/30 02:07:12;;;;;;;11.65;10.50;;;;;;;;;;2074855;28;20727;-59
2022/07/30 02:08:19;;;;;;;12.18;10.95;;;;;;;;;;2080226;28;20252;-58
2022/07/30 02:09:27;;;;;;;13.43;12.07;;;;;;;;;;2082196;28;20219;-60
2022/07/30 02:10:29;;;;;;;12.60;11.40;;;;;;;;;;2074154;28;20177;-59
2022/07/30 02:13:00;;;;;;;12.05;10.70;;;;;;;;;;2083018;28;20170;-58
2022/07/30 02:14:02;;;;;;;12.38;10.98;;;;;;;;;;2081320;28;20237;-56
2022/07/30 02:15:02;;;;;;;12.02;11.00;;;;;;;;;;2081943;28;20648;-59
2022/07/30 02:16:06;;;;;;;11.65;10.65;;;;;;;;;;2081686;28;20211;-58
2022/07/30 02:17:07;;;;;;;12.60;11.32;;;;;;;;;;2082223;28;20199;-60
2022/07/30 02:18:21;;;;;;;11.48;10.57;;;;;;;;;;2090756;28;20565;-60
2022/07/30 02:19:23;;;;;;;11.57;10.48;;;;;;;;;;2081154;28;20172;-58
2022/07/30 02:20:25;;;;;;;10.25;9.30;;;;;;;;;;2074313;28;20181;-58
2022/07/30 02:21:26;;;;;;;11.88;10.68;;;;;;;;;;2073417;28;20193;-60
2022/07/30 02:22:32;;;;;;;10.90;10.10;;;;;;;;;;2073982;28;20236;-58
2022/07/30 02:23:35;;;;;;;11.85;10.65;;;;;;;;;;2079627;28;20188;-60
2022/07/30 02:24:36;;;;;;;11.20;10.15;;;;;;;;;;2072924;28;20743;-58
2022/07/30 02:25:41;;;;;;;12.55;11.27;;;;;;;;;;2080757;28;20263;-60
2022/07/30 02:26:42;;;;;;;11.95;10.88;;;;;;;;;;2081830;28;20164;-61
2022/07/30 02:27:44;;;;;;;12.05;11.05;;;;;;;;;;2081805;28;20200;-59
2022/07/30 02:28:46;;;;;;;11.43;10.48;;;;;;;;;;2073823;28;20268;-60
2022/07/30 02:29:49;;;;;;;12.32;11.20;;;;;;;;;;2082674;28;20168;-59
2022/07/30 02:30:51;;;;;;;12.77;11.73;;;;;;;;;;2090969;28;20184;-59
2022/07/30 02:31:53;;;;;;;12.60;11.50;;;;;;;;;;2079184;28;20230;-60
2022/07/30 02:32:58;;;;;;;12.40;11.25;;;;;;;;;;2083391;28;20740;-60
2022/07/30 02:34:01;;;;;;;13.07;11.77;;;;;;;;;;2084133;28;20645;-58
2022/07/30 02:35:09;;;;;;;13.13;11.88;;;;;;;;;;2083241;28;20169;-60
2022/07/30 02:36:10;;;;;;;12.25;11.02;;;;;;;;;;2077391;28;20263;-60
2022/07/30 02:37:11;;;;;;;12.20;11.02;;;;;;;;;;2076040;28;20177;-60
2022/07/30 02:38:12;;;;;;;12.15;11.07;;;;;;;;;;2076179;28;20180;-59
2022/07/30 02:39:13;;;;;;;12.95;11.73;;;;;;;;;;2084260;28;20184;-59
2022/07/30 02:40:16;;;;;;;13.18;11.90;;;;;;;;;;2083938;28;20174;-59
2022/07/30 02:41:18;;;;;;;13.02;11.73;;;;;;;;;;2092148;28;20655;-60
2022/07/30 02:42:20;;;;;;;18.02;12.32;;;;;;;;;;2084294;28;20172;-59
2022/07/30 02:43:23;;;;;;;11.70;10.82;;;;;;;;;;2083835;28;20180;-58
2022/07/30 02:44:25;;;;;;;12.40;11.30;;;;;;;;;;2093961;28;20215;-59
2022/07/30 02:45:26;;;;;;;11.90;10.93;;;;;;;;;;2087501;28;20171;-59
2022/07/30 02:46:27;;;;;;;12.10;11.00;;;;;;;;;;2078492;28;20177;-60
2022/07/30 02:48:07;;;;;;;12.25;11.15;;;;;;;;;;2055449;28;20166;-61
2022/07/30 02:49:12;;;;;;;13.13;11.90;;;;;;;;;;2053128;28;20211;-60
2022/07/30 02:50:15;;;;;;;11.25;10.40;;;;;;;;;;2052500;29;20189;-61
2022/07/30 02:51:17;;;;;;;12.88;11.65;;;;;;;;;;2052729;29;20181;-61
2022/07/30 02:52:17;;;;;;;13.32;12.13;;;;;;;;;;2048074;29;20176;-59
2022/07/30 02:53:18;;;;;;;12.70;11.68;;;;;;;;;;2050972;28;20266;-59
2022/07/30 02:54:19;;;;;;;12.50;11.32;;;;;;;;;;2083838;28;20169;-59
2022/07/30 02:55:20;;;;;;;13.13;11.93;;;;;;;;;;2077250;28;20177;-61
2022/07/30 02:56:21;;;;;;;12.60;11.43;;;;;;;;;;2084269;28;20181;-61
2022/07/30 02:57:22;;;;;;;12.25;11.13;;;;;;;;;;2084866;28;20179;-60
2022/07/30 02:58:24;;;;;;;13.80;12.43;;;;;;;;;;2084746;28;20633;-59
2022/07/30 02:59:25;;;;;;;12.73;11.65;;;;;;;;;;2084043;28;20167;-58
2022/07/30 03:00:27;;;;;;;13.10;11.85;;;;;;;;;;2076958;28;20169;-61
2022/07/30 03:01:28;;;;;;;12.65;11.55;;;;;;;;;;2076600;28;20351;-58
2022/07/30 03:02:28;;;;;;;14.10;12.48;;;;;;;;;;2076428;28;20172;-60
2022/07/30 03:03:30;;;;;;;13.10;11.80;;;;;;;;;;2084670;28;20180;-60
2022/07/30 03:04:31;;;;;;;12.70;11.60;;;;;;;;;;2092780;28;20266;-61
2022/07/30 03:05:32;;;;;;;12.85;11.68;;;;;;;;;;2082731;28;20164;-60
2022/07/30 03:06:34;;;;;;;13.50;12.05;;;;;;;;;;2084398;28;20187;-58
2022/07/30 03:07:35;;;;;;;14.18;12.90;;;;;;;;;;2083794;28;20172;-61
2022/07/30 03:08:36;;;;;;;14.32;12.95;;;;;;;;;;2075605;28;20195;-59
2022/07/30 03:09:37;;;;;;;12.40;11.32;;;;;;;;;;2083725;28;20242;-63
2022/07/30 03:10:39;;;;;;;13.45;12.10;;;;;;;;;;2092875;28;20542;-60
2022/07/30 03:11:39;;;;;;;13.18;11.98;;;;;;;;;;2083415;28;20192;-58
2022/07/30 03:12:43;;;;;;;13.23;12.13;;;;;;;;;;2084430;28;20168;-60
2022/07/30 03:13:43;;;;;;;14.73;11.90;;;;;;;;;;2083456;28;20207;-59
2022/07/30 03:14:44;;;;;;;12.80;11.65;;;;;;;;;;2082238;28;20564;-61
2022/07/30 03:15:47;;;;;;;13.35;12.25;;;;;;;;;;2082983;28;20669;-61
2022/07/30 03:16:52;;;;;;;12.93;11.73;;;;;;;;;;2084261;28;20231;-61
2022/07/30 03:17:54;;;;;;;13.27;12.00;;;;;;;;;;2082706;28;20250;-59
2022/07/30 03:18:56;;;;;;;11.52;10.63;;;;;;;;;;2074905;28;20174;-60
2022/07/30 03:19:59;;;;;;;13.10;11.85;;;;;;;;;;2085006;28;20168;-60
2022/07/30 03:21:00;;;;;;;11.82;10.65;;;;;;;;;;2075359;28;20181;-59
2022/07/30 03:22:01;;;;;;;12.45;11.45;;;;;;;;;;2075536;28;20196;-61
2022/07/30 03:23:03;;;;;;;12.70;11.50;;;;;;;;;;2084603;28;20244;-59
2022/07/30 03:24:05;;;;;;;12.88;11.43;;;;;;;;;;2075323;28;20310;-61
2022/07/30 03:25:07;;;;;;;13.48;12.10;;;;;;;;;;2068336;28;20225;-61
2022/07/30 03:26:08;;;;;;;14.02;12.75;;;;;;;;;;2067851;28;20204;-59
2022/07/30 03:27:09;;;;;;;12.43;11.52;;;;;;;;;;2085442;28;20172;-59
2022/07/30 03:28:11;;;;;;;12.38;11.32;;;;;;;;;;2075674;28;21522;-59
2022/07/30 03:29:12;;;;;;;14.00;12.70;;;;;;;;;;2080923;28;20168;-58
2022/07/30 03:30:14;;;;;;;12.30;11.27;;;;;;;;;;2074871;28;20650;-59
2022/07/30 03:31:15;;;;;;;12.13;11.23;;;;;;;;;;2075314;28;20173;-61
2022/07/30 03:32:16;;;;;;;13.02;11.65;;;;;;;;;;2075072;28;20164;-59
2022/07/30 03:33:17;;;;;;;12.85;11.57;;;;;;;;;;2075252;28;20187;-60
2022/07/30 03:34:19;;;;;;;12.70;11.70;;;;;;;;;;2074027;28;20235;-59
2022/07/30 03:35:21;;;;;;;13.85;12.45;;;;;;;;;;2074263;28;20264;-58
2022/07/30 03:36:21;;;;;;;13.13;11.88;;;;;;;;;;2074189;28;20646;-58
2022/07/30 03:37:23;;;;;;;13.45;11.98;;;;;;;;;;2073783;28;20197;-58
2022/07/30 03:38:24;;;;;;;13.93;12.60;;;;;;;;;;2074025;28;20192;-58
2022/07/30 03:39:24;;;;;;;14.07;12.60;;;;;;;;;;2073597;28;20563;-58
2022/07/30 03:40:25;;;;;;;13.85;12.63;;;;;;;;;;2073799;28;20184;-57
2022/07/30 03:41:26;;;;;;;13.88;12.43;;;;;;;;;;2065574;28;20179;-59
2022/07/30 03:42:27;;;;;;;13.25;12.15;;;;;;;;;;2073783;28;20208;-58
2022/07/30 03:43:28;;;;;;;13.85;12.45;;;;;;;;;;2073357;28;20273;-60
2022/07/30 03:44:29;;;;;;;15.60;14.23;;;;;;;;;;2072186;28;20668;-59
2022/07/30 03:45:30;;;;;;;15.75;14.23;;;;;;;;;;2073638;28;20200;-59
2022/07/30 03:46:38;;;;;;;14.98;13.77;;;;;;;;;;2074448;28;20172;-61
2022/07/30 03:47:40;;;;;;;16.80;15.32;;;;;;;;;;2073134;28;20688;-57
2022/07/30 03:48:41;;;;;;;15.95;14.48;;;;;;;;;;2081715;28;20172;-58
2022/07/30 03:49:41;;;;;;;16.05;14.55;;;;;;;;;;2081740;28;20176;-58
2022/07/30 03:50:44;;;;;;;16.48;14.20;;;;;;;;;;2073186;28;20184;-57
2022/07/30 03:51:45;;;;;;;16.20;14.55;;;;;;;;;;2081661;28;20656;-59
2022/07/30 03:52:48;;;;;;;16.40;14.77;;;;;;;;;;2081328;28;20266;-57
2022/07/30 03:53:50;;;;;;;14.75;13.32;;;;;;;;;;2073526;28;20634;-59
2022/07/30 03:55:11;;;;;;;15.15;13.75;;;;;;;;;;2078867;28;20204;-58
2022/07/30 03:56:12;;;;;;;13.63;12.52;;;;;;;;;;2090634;28;21533;-56
2022/07/30 03:57:33;;;;;;;13.88;12.57;;;;;;;;;;2072943;28;20221;-56
2022/07/30 03:58:35;;;;;;;13.55;12.38;;;;;;;;;;2081614;28;20626;-55
2022/07/30 03:59:37;;;;;;;14.13;12.95;;;;;;;;;;2073733;28;20169;-57
2022/07/30 04:00:39;;;;;;;14.45;12.00;;;;;;;;;;2081471;28;20178;-58
2022/07/30 04:01:40;;;;;;;13.23;12.05;;;;;;;;;;2073221;28;20256;-57
2022/07/30 04:02:48;;;;;;;13.95;12.65;;;;;;;;;;2074597;28;20176;-59
2022/07/30 04:04:06;;;;;;;14.35;13.00;;;;;;;;;;2079684;28;20160;-59
2022/07/30 04:05:07;;;;;;;15.40;13.02;;;;;;;;;;2073516;28;20176;-54
2022/07/30 04:06:07;;;;;;;13.82;12.75;;;;;;;;;;2076087;28;20657;-57
2022/07/30 04:07:08;;;;;;;13.45;12.25;;;;;;;;;;2073228;28;20204;-57
2022/07/30 04:08:08;;;;;;;14.23;12.82;;;;;;;;;;2081012;28;20227;-57
2022/07/30 04:09:09;;;;;;;14.20;12.75;;;;;;;;;;2089459;28;20666;-56
2022/07/30 04:10:11;;;;;;;13.57;12.27;;;;;;;;;;2073396;28;20169;-57
2022/07/30 04:11:34;;;;;;;13.43;12.02;;;;;;;;;;2079420;28;20715;-57
2022/07/30 04:12:41;;;;;;;15.70;13.05;;;;;;;;;;2077657;28;20177;-56
2022/07/30 04:13:42;;;;;;;14.55;12.95;;;;;;;;;;2073137;28;20164;-56
2022/07/30 04:14:43;;;;;;;12.98;11.68;;;;;;;;;;2079903;28;20214;-58
2022/07/30 04:15:55;;;;;;;13.75;12.60;;;;;;;;;;2081332;28;20283;-58
2022/07/30 04:16:59;;;;;;;13.38;12.18;;;;;;;;;;2073464;28;20173;-59
2022/07/30 04:18:01;;;;;;;13.18;11.98;;;;;;;;;;2073217;28;20224;-59
2022/07/30 04:19:04;;;;;;;13.25;11.90;;;;;;;;;;2076703;28;20211;-58
2022/07/30 04:20:08;;;;;;;13.73;12.43;;;;;;;;;;2083415;28;20280;-57
2022/07/30 04:21:09;;;;;;;12.98;11.68;;;;;;;;;;2082931;28;20176;-54
2022/07/30 04:22:10;;;;;;;14.43;13.13;;;;;;;;;;2075403;28;20714;-59
2022/07/30 04:23:12;;;;;;;14.18;12.93;;;;;;;;;;2083670;28;20176;-59
2022/07/30 04:24:14;;;;;;;14.63;13.38;;;;;;;;;;2080774;28;20668;-55
2022/07/30 04:25:15;;;;;;;14.55;13.32;;;;;;;;;;2085980;28;20175;-58
2022/07/30 04:26:17;;;;;;;14.48;13.02;;;;;;;;;;2081132;28;20181;-54
2022/07/30 04:27:17;;;;;;;14.43;13.13;;;;;;;;;;2074977;28;20658;-56
2022/07/30 04:28:18;;;;;;;14.23;12.88;;;;;;;;;;2073534;28;20185;-56
2022/07/30 04:29:18;;;;;;;13.15;11.95;;;;;;;;;;2074628;28;20164;-58
2022/07/30 04:30:19;;;;;;;13.32;12.18;;;;;;;;;;2074354;28;20177;-57
2022/07/30 04:31:20;;;;;;;14.65;13.43;;;;;;;;;;2075058;28;20813;-59
2022/07/30 04:32:21;;;;;;;13.93;12.82;;;;;;;;;;2076633;28;20192;-58
2022/07/30 04:33:43;;;;;;;14.38;13.18;;;;;;;;;;2079523;28;20168;-56
2022/07/30 04:34:56;;;;;;;14.40;13.10;;;;;;;;;;2081770;28;20593;-57
2022/07/30 04:36:29;;;;;;;15.15;13.73;;;;;;;;;;2071030;28;20190;-61
2022/07/30 04:37:29;;;;;;;13.95;12.73;;;;;;;;;;2082487;28;20611;-55
2022/07/30 04:38:30;;;;;;;15.57;14.15;;;;;;;;;;2074878;28;20658;-56
2022/07/30 04:39:30;;;;;;;15.05;13.77;;;;;;;;;;2083294;28;20569;-58
2022/07/30 04:40:31;;;;;;;16.15;14.75;;;;;;;;;;2083766;28;20219;-59
2022/07/30 04:41:31;;;;;;;15.77;14.38;;;;;;;;;;2083866;28;20271;-58
2022/07/30 04:43:07;;;;;;;16.20;14.70;;;;;;;;;;2075329;28;20167;-56
2022/07/30 04:44:09;;;;;;;15.60;14.13;;;;;;;;;;2081675;28;20168;-58
2022/07/30 04:45:19;;;;;;;15.75;14.55;;;;;;;;;;2075965;28;20607;-60
2022/07/30 04:46:28;;;;;;;15.75;14.23;;;;;;;;;;2075763;28;20657;-58
2022/07/30 04:47:28;;;;;;;14.80;13.60;;;;;;;;;;2082338;28;20180;-58
2022/07/30 04:48:48;;;;;;;15.45;13.85;;;;;;;;;;2079150;28;20536;-56
2022/07/30 04:49:49;;;;;;;15.15;13.75;;;;;;;;;;2074157;28;20316;-56
2022/07/30 04:50:52;;;;;;;15.80;14.48;;;;;;;;;;2074443;28;20298;-57
2022/07/30 04:51:53;;;;;;;15.05;13.73;;;;;;;;;;2072269;28;20180;-57
2022/07/30 04:52:54;;;;;;;16.13;14.60;;;;;;;;;;2082616;28;21792;-59
2022/07/30 04:54:00;;;;;;;15.82;14.52;;;;;;;;;;2073353;28;20204;-57
2022/07/30 04:55:02;;;;;;;15.30;14.07;;;;;;;;;;2081561;28;20714;-58
2022/07/30 04:56:04;;;;;;;15.70;14.40;;;;;;;;;;2080840;28;20166;-57
2022/07/30 04:57:05;;;;;;;14.93;13.82;;;;;;;;;;2067455;28;20288;-60
2022/07/30 04:58:07;;;;;;;15.82;14.43;;;;;;;;;;2072915;28;20300;-57
2022/07/30 04:59:09;;;;;;;15.35;14.07;;;;;;;;;;2078703;28;20250;-58
2022/07/30 05:00:10;;;;;;;15.95;14.55;;;;;;;;;;2080836;28;20204;-58
2022/07/30 05:01:15;;;;;;;15.63;14.27;;;;;;;;;;2079617;28;20172;-56
2022/07/30 05:02:18;;;;;;;15.38;14.07;;;;;;;;;;2073496;28;20187;-59
2022/07/30 05:03:20;;;;;;;16.15;14.57;;;;;;;;;;2082052;28;20218;-59
2022/07/30 05:04:25;;;;;;;16.08;14.70;;;;;;;;;;2080206;28;20556;-57
2022/07/30 05:05:27;;;;;;;15.23;13.93;;;;;;;;;;2072703;28;20204;-58
2022/07/30 05:06:29;;;;;;;15.95;14.48;;;;;;;;;;2071477;28;20215;-58
2022/07/30 05:07:30;;;;;;;15.45;14.10;;;;;;;;;;2079561;28;20168;-59
2022/07/30 05:08:32;;;;;;;15.30;13.80;;;;;;;;;;2072159;28;20956;-57
2022/07/30 05:09:35;;;;;;;15.85;14.55;;;;;;;;;;2065129;28;20216;-59
2022/07/30 05:10:36;;;;;;;15.75;14.20;;;;;;;;;;2075509;28;20674;-55
2022/07/30 05:11:37;;;;;;;16.77;15.48;;;;;;;;;;2072555;28;20231;-56
2022/07/30 05:12:37;;;;;;;16.10;14.70;;;;;;;;;;2080838;28;20247;-57
2022/07/30 05:13:44;;;;;;;15.93;14.35;;;;;;;;;;2072685;28;20169;-57
2022/07/30 05:14:47;;;;;;;16.00;14.65;;;;;;;;;;2079716;28;20168;-57
2022/07/30 05:15:47;;;;;;;15.98;14.52;;;;;;;;;;2064457;28;20611;-54
2022/07/30 05:16:51;;;;;;;15.07;13.77;;;;;;;;;;2065147;28;20710;-57
2022/07/30 05:17:51;;;;;;;15.82;14.25;;;;;;;;;;2075392;28;20291;-59
2022/07/30 05:18:53;;;;;;;15.50;14.02;;;;;;;;;;2072470;28;20715;-56
2022/07/30 05:19:53;;;;;;;14.40;13.13;;;;;;;;;;2072812;28;20172;-57
2022/07/30 05:20:53;;;;;;;15.38;14.00;;;;;;;;;;2071730;28;20173;-57
2022/07/30 05:22:02;;;;;;;14.43;13.23;;;;;;;;;;2101377;23;20928;-64
2022/07/30 05:23:04;;;;;;;14.98;13.68;;;;;;;;;;2083139;28;20180;-65
2022/07/30 05:24:05;;;;;;;15.20;13.85;;;;;;;;;;2073924;28;20177;-66
2022/07/30 05:25:11;;;;;;;15.23;13.57;;;;;;;;;;2075014;28;20168;-65
2022/07/30 05:26:11;;;;;;;15.65;14.35;;;;;;;;;;2074365;28;20177;-65
2022/07/30 05:27:16;;;;;;;14.90;13.57;;;;;;;;;;2085356;28;20164;-66
2022/07/30 05:28:16;;;;;;;14.85;13.38;;;;;;;;;;2083214;28;20180;-67
2022/07/30 05:29:18;;;;;;;14.75;13.38;;;;;;;;;;2076050;28;20288;-66
2022/07/30 05:30:23;;;;;;;15.63;14.27;;;;;;;;;;2072444;28;20179;-65
2022/07/30 05:31:24;;;;;;;17.42;15.60;;;;;;;;;;2079652;28;20231;-66
2022/07/30 05:32:30;;;;;;;16.60;15.15;;;;;;;;;;2072838;28;20200;-67
2022/07/30 05:33:30;;;;;;;15.02;13.60;;;;;;;;;;2073545;28;20661;-67
2022/07/30 05:34:30;;;;;;;15.98;14.40;;;;;;;;;;2062790;28;20253;-67
2022/07/30 05:35:31;;;;;;;16.00;14.40;;;;;;;;;;2064308;28;20247;-66
2022/07/30 05:36:32;;;;;;;15.23;14.05;;;;;;;;;;2066768;28;20173;-67
2022/07/30 05:37:33;;;;;;;16.50;15.02;;;;;;;;;;2072158;28;20187;-66
2022/07/30 05:38:34;;;;;;;14.85;13.52;;;;;;;;;;2056666;28;20182;-66
2022/07/30 05:40:13;;;;;;;15.20;13.85;;;;;;;;;;2061658;28;20220;-67
2022/07/30 05:41:48;;;;;;;14.48;13.27;;;;;;;;;;2051389;28;20747;-66
2022/07/30 05:43:09;;;;;;;14.18;12.98;;;;;;;;;;2075549;28;20181;-67
2022/07/30 05:44:11;;;;;;;14.68;13.27;;;;;;;;;;2071386;28;20169;-66
2022/07/30 05:45:11;;;;;;;14.38;13.18;;;;;;;;;;2066739;28;20186;-66
2022/07/30 05:46:13;;;;;;;14.23;12.77;;;;;;;;;;2071295;28;20180;-67
2022/07/30 05:47:13;;;;;;;14.00;12.80;;;;;;;;;;2072492;28;20661;-67
2022/07/30 05:48:14;;;;;;;14.82;13.63;;;;;;;;;;2071647;28;20273;-65
2022/07/30 05:49:15;;;;;;;15.02;13.63;;;;;;;;;;2076996;28;20596;-67
2022/07/30 05:50:15;;;;;;;16.17;14.35;;;;;;;;;;2062753;28;20234;-67
2022/07/30 05:51:17;;;;;;;14.18;12.93;;;;;;;;;;2056331;28;20213;-67
2022/07/30 05:52:17;;;;;;;14.45;13.20;;;;;;;;;;2072015;28;20200;-67
2022/07/30 05:53:18;;;;;;;13.23;12.00;;;;;;;;;;2071457;28;20178;-65
2022/07/30 05:54:41;;;;;;;13.25;12.05;;;;;;;;;;2073296;28;20564;-68
2022/07/30 05:56:00;;;;;;;13.90;12.55;;;;;;;;;;2077002;28;20180;-68
2022/07/30 05:57:19;;;;;;;14.40;13.18;;;;;;;;;;2077982;28;20204;-65
2022/07/30 05:58:19;;;;;;;13.52;12.43;;;;;;;;;;2070844;28;20184;-67
2022/07/30 05:59:19;;;;;;;14.43;13.10;;;;;;;;;;2074044;28;20176;-66
2022/07/30 06:00:36;;;;;;;13.93;12.82;;;;;;;;;;2068874;28;20177;-65
2022/07/30 06:01:37;;;;;;;15.43;14.02;;;;;;;;;;2071052;28;20172;-67
2022/07/30 06:02:45;;;;;;;15.02;13.60;;;;;;;;;;2069530;28;20178;-67
2022/07/30 06:03:54;;;;;;;15.07;13.57;;;;;;;;;;2068956;28;20188;-67
2022/07/30 06:05:27;;;;;;;15.18;13.65;;;;;;;;;;2071582;28;20276;-66
2022/07/30 06:06:31;;;;;;;15.40;14.07;;;;;;;;;;2073549;28;22359;-66
2022/07/30 06:07:31;;;;;;;14.82;13.43;;;;;;;;;;2064031;28;20219;-66
2022/07/30 06:08:34;;;;;;;14.63;13.23;;;;;;;;;;2062154;28;20208;-64
2022/07/30 06:09:34;;;;;;;14.73;13.52;;;;;;;;;;2064430;28;20284;-66
2022/07/30 06:10:35;;;;;;;14.20;12.95;;;;;;;;;;2073448;28;20193;-65
2022/07/30 06:11:36;;;;;;;14.10;12.80;;;;;;;;;;2071845;28;20385;-67
2022/07/30 06:12:36;;;;;;;14.55;13.30;;;;;;;;;;2064034;28;20689;-66